Time;durP1;ratioP1;P1;durP2;ratioP2;P2;SDS_P1;SDS_P2;PMS_P1;PMS_P2;Temp;Humidity;BMP_temperature;BMP_pressure;BME280_temperature;BME280_humidity;BME280_pressure;Samples;Min_cycle;Max_cycle;Signal;HPM_P1;HPM_P2
2022/02/08 00:00:07;;;;;;;11.95;4.60;;;3.60;99.90;;;;;;5050660;28;20122;-59
2022/02/08 00:02:36;;;;;;;9.45;2.70;;;3.60;99.90;;;;;;5050487;28;20028;-60
2022/02/08 00:05:04;;;;;;;13.80;3.00;;;3.60;99.90;;;;;;5041669;28;20055;-60
2022/02/08 00:07:31;;;;;;;15.63;3.08;;;3.60;99.90;;;;;;5047798;28;20028;-60
2022/02/08 00:09:57;;;;;;;9.63;3.03;;;3.70;99.90;;;;;;5046450;28;20520;-59
2022/02/08 00:12:23;;;;;;;16.83;4.45;;;3.70;99.90;;;;;;5028841;28;20045;-57
2022/02/08 00:14:49;;;;;;;11.95;3.00;;;3.70;99.90;;;;;;5030624;28;20029;-59
2022/02/08 00:17:14;;;;;;;10.20;3.22;;;3.80;99.90;;;;;;5032153;28;20039;-60
2022/02/08 00:19:40;;;;;;;10.45;2.85;;;3.80;99.90;;;;;;5031207;28;20033;-58
2022/02/08 00:22:05;;;;;;;14.38;3.17;;;3.80;99.90;;;;;;5032037;28;20026;-59
2022/02/08 00:24:33;;;;;;;9.18;2.70;;;3.80;99.90;;;;;;5038304;28;20488;-59
2022/02/08 00:26:59;;;;;;;13.10;3.15;;;3.80;99.90;;;;;;5032625;28;20108;-59
2022/02/08 00:29:24;;;;;;;13.02;2.55;;;3.80;99.90;;;;;;5047047;28;20032;-59
2022/02/08 00:31:50;;;;;;;9.05;2.42;;;3.90;99.90;;;;;;5056708;28;20029;-60
2022/02/08 00:34:15;;;;;;;9.23;3.05;;;3.90;99.90;;;;;;5035252;28;20029;-59
2022/02/08 00:36:41;;;;;;;11.43;2.10;;;4.00;99.90;;;;;;5043131;28;20055;-59
2022/02/08 00:39:08;;;;;;;8.77;1.95;;;4.00;99.90;;;;;;5036664;28;20037;-58
2022/02/08 00:41:36;;;;;;;12.10;2.00;;;4.00;99.90;;;;;;5039251;28;20025;-59
2022/02/08 00:44:08;;;;;;;10.30;1.88;;;4.00;99.90;;;;;;5033776;28;20029;-59
2022/02/08 00:46:44;;;;;;;18.33;2.33;;;4.00;99.90;;;;;;5039976;28;20123;-57
2022/02/08 00:49:11;;;;;;;15.13;2.55;;;4.00;99.90;;;;;;5035289;28;20482;-58
2022/02/08 00:51:53;;;;;;;18.10;3.00;;;4.00;99.90;;;;;;5035737;28;20057;-58
2022/02/08 00:54:19;;;;;;;15.98;2.60;;;4.00;99.90;;;;;;5031825;28;20117;-57
2022/02/08 00:56:45;;;;;;;16.55;2.78;;;4.00;99.90;;;;;;5038362;28;20104;-58
2022/02/08 00:59:11;;;;;;;14.85;2.67;;;4.00;99.90;;;;;;5049305;28;20116;-57
2022/02/08 01:01:38;;;;;;;14.32;2.85;;;4.00;99.90;;;;;;5038392;28;20132;-60
2022/02/08 01:04:05;;;;;;;17.08;2.83;;;3.90;99.90;;;;;;5035260;28;20491;-56
2022/02/08 01:06:31;;;;;;;19.48;2.47;;;3.90;99.90;;;;;;5041877;28;20025;-58
2022/02/08 01:09:09;;;;;;;15.68;3.13;;;3.90;99.90;;;;;;5044200;28;20090;-60
2022/02/08 01:11:34;;;;;;;13.35;3.25;;;4.00;99.90;;;;;;5018457;28;20107;-59
2022/02/08 01:14:00;;;;;;;13.38;2.72;;;3.90;99.90;;;;;;5036786;28;20033;-59
2022/02/08 01:16:26;;;;;;;19.95;3.35;;;3.90;99.90;;;;;;5036241;28;20086;-59
2022/02/08 01:18:54;;;;;;;17.05;3.83;;;3.90;99.90;;;;;;5036241;28;20043;-57
2022/02/08 01:21:20;;;;;;;13.45;2.53;;;3.90;99.90;;;;;;5036291;28;20025;-57
2022/02/08 01:23:46;;;;;;;9.57;2.58;;;3.90;99.90;;;;;;5040006;28;20117;-59
2022/02/08 01:26:15;;;;;;;17.67;3.22;;;3.90;99.90;;;;;;5037376;28;20461;-59
2022/02/08 01:28:51;;;;;;;11.60;2.78;;;3.90;99.90;;;;;;5038899;28;20032;-59
2022/02/08 01:31:19;;;;;;;19.80;2.92;;;3.90;99.90;;;;;;5038155;28;20106;-59
2022/02/08 01:34:11;;;;;;;13.18;2.85;;;3.90;99.90;;;;;;5039116;28;20032;-60
2022/02/08 01:36:50;;;;;;;18.92;5.13;;;3.90;99.90;;;;;;5038437;28;20068;-60
2022/02/08 01:47:31;;;;;;;16.00;2.90;;;3.90;99.90;;;;;;5031846;28;20076;-59
2022/02/08 01:50:10;;;;;;;16.83;3.63;;;3.90;99.90;;;;;;5049942;28;20056;-60
2022/02/08 01:52:37;;;;;;;21.60;3.10;;;3.90;99.90;;;;;;5019835;28;20641;-60
2022/02/08 01:55:03;;;;;;;16.27;3.13;;;3.90;99.90;;;;;;5042444;28;20017;-57
2022/02/08 01:57:29;;;;;;;27.85;4.10;;;3.90;99.90;;;;;;5032258;28;20041;-59
2022/02/08 01:59:54;;;;;;;22.10;3.80;;;4.00;99.90;;;;;;5034103;28;20033;-59
2022/02/08 02:02:20;;;;;;;19.73;2.72;;;4.00;99.90;;;;;;5040169;28;20044;-58
2022/02/08 02:04:47;;;;;;;16.17;3.30;;;4.00;99.90;;;;;;5030399;28;20080;-58
2022/02/08 02:07:13;;;;;;;21.50;3.80;;;4.00;99.90;;;;;;5039323;28;20029;-57
2022/02/08 02:09:44;;;;;;;19.88;3.45;;;4.00;99.90;;;;;;5039493;28;20537;-57
2022/02/08 02:12:10;;;;;;;15.88;3.40;;;4.00;99.90;;;;;;5033750;28;20067;-58
2022/02/08 02:14:37;;;;;;;18.38;3.55;;;4.00;99.90;;;;;;5038831;28;20487;-59
2022/02/08 02:17:03;;;;;;;19.33;3.95;;;4.00;99.90;;;;;;5040865;28;20028;-58
2022/02/08 02:19:30;;;;;;;20.73;3.35;;;4.00;99.90;;;;;;5043705;28;20409;-60
2022/02/08 02:21:57;;;;;;;21.02;4.30;;;4.10;99.90;;;;;;5037402;28;20029;-58
2022/02/08 02:24:23;;;;;;;17.17;3.55;;;4.10;99.90;;;;;;5037228;28;20491;-59
2022/02/08 02:26:49;;;;;;;18.90;3.97;;;4.10;99.90;;;;;;5041325;28;20035;-58
2022/02/08 02:29:16;;;;;;;36.97;5.20;;;4.20;99.90;;;;;;5043326;28;20042;-59
2022/02/08 02:31:43;;;;;;;15.68;4.60;;;4.10;99.90;;;;;;5040934;28;20037;-59
2022/02/08 02:34:09;;;;;;;20.33;4.50;;;4.10;99.90;;;;;;5044371;28;20029;-60
2022/02/08 02:36:38;;;;;;;21.05;4.70;;;4.10;99.90;;;;;;5041911;28;20487;-58
2022/02/08 02:39:03;;;;;;;25.70;4.13;;;4.10;99.90;;;;;;5045718;28;20105;-59
2022/02/08 02:41:37;;;;;;;13.77;4.50;;;4.20;99.90;;;;;;5035863;28;20551;-59
2022/02/08 02:44:08;;;;;;;13.20;4.28;;;4.20;99.90;;;;;;5037202;28;20048;-63
2022/02/08 02:46:34;;;;;;;25.83;4.85;;;4.20;99.90;;;;;;5046109;28;20029;-58
2022/02/08 02:49:00;;;;;;;23.42;5.35;;;4.20;99.90;;;;;;5038224;28;20025;-60
2022/02/08 02:51:26;;;;;;;28.35;6.28;;;4.30;99.90;;;;;;5034017;28;20368;-58
2022/02/08 02:53:52;;;;;;;14.63;4.95;;;4.30;99.90;;;;;;5033256;28;20079;-57
2022/02/08 02:56:17;;;;;;;23.88;5.95;;;4.30;99.90;;;;;;5042979;28;20445;-62
2022/02/08 02:58:43;;;;;;;24.52;6.30;;;4.30;99.90;;;;;;5048261;28;20021;-61
2022/02/08 03:20:11;;;;;;;11.23;2.83;;;4.30;99.90;;;;;;5023113;28;20449;-59
2022/02/08 03:22:37;;;;;;;19.38;2.88;;;4.30;99.90;;;;;;5041687;28;20037;-61
2022/02/08 03:25:03;;;;;;;23.48;2.80;;;4.30;99.90;;;;;;5041570;28;20074;-58
2022/02/08 03:27:29;;;;;;;20.40;3.38;;;4.30;99.90;;;;;;5045675;28;20055;-58
2022/02/08 03:29:55;;;;;;;15.63;3.13;;;4.30;99.90;;;;;;5038005;28;20063;-58
2022/02/08 03:32:22;;;;;;;18.25;3.00;;;4.30;99.90;;;;;;5045575;28;20047;-60
2022/02/08 03:34:48;;;;;;;11.63;2.65;;;4.20;99.90;;;;;;5039262;28;20048;-60
2022/02/08 03:37:14;;;;;;;21.08;4.03;;;4.20;99.90;;;;;;5042569;28;20487;-59
2022/02/08 03:39:42;;;;;;;21.92;2.83;;;4.20;99.90;;;;;;5040246;28;20028;-58
2022/02/08 03:42:17;;;;;;;12.73;3.75;;;4.20;99.90;;;;;;5038351;28;20037;-58
2022/02/08 03:44:47;;;;;;;20.90;4.15;;;4.20;99.90;;;;;;5037766;28;20610;-60
2022/02/08 03:47:14;;;;;;;7.93;2.35;;;4.20;99.90;;;;;;5038711;28;20079;-60
2022/02/08 03:49:41;;;;;;;22.10;3.70;;;4.20;99.90;;;;;;5045472;28;20017;-59
2022/02/08 03:52:06;;;;;;;15.38;2.38;;;4.30;99.90;;;;;;5049586;28;20043;-59
2022/02/08 03:54:33;;;;;;;11.75;2.22;;;4.30;99.90;;;;;;5043160;28;20033;-59
2022/02/08 03:56:59;;;;;;;14.18;2.65;;;4.30;99.90;;;;;;5043558;28;20385;-59
2022/02/08 03:59:24;;;;;;;17.25;2.13;;;4.30;99.90;;;;;;5046790;28;20019;-58
2022/02/08 04:07:17;;;;;;;12.13;2.17;;;4.40;99.90;;;;;;5041428;28;20406;-59
2022/02/08 04:09:43;;;;;;;;;;;4.40;99.90;;;;;;5039323;28;20025;-58
2022/02/08 04:12:39;;;;;;;15.13;2.25;;;4.40;99.90;;;;;;5036828;28;20413;-57
2022/02/08 04:15:16;;;;;;;9.40;1.50;;;4.50;99.90;;;;;;5045175;28;20033;-60
2022/02/08 04:41:39;;;;;;;23.90;2.60;;;4.70;99.90;;;;;;5039143;28;20065;-58
2022/02/08 04:46:52;;;;;;;14.05;2.75;;;4.70;99.90;;;;;;5043832;28;20028;-58
2022/02/08 04:49:18;;;;;;;10.32;1.95;;;4.70;99.90;;;;;;5037202;28;20522;-59
2022/02/08 04:51:49;;;;;;;9.13;2.28;;;4.70;99.90;;;;;;5032820;28;20022;-59
2022/02/08 04:54:28;;;;;;;9.27;1.90;;;4.70;99.90;;;;;;5038847;28;20441;-60
2022/02/08 05:45:33;;;;;;;33.75;15.73;;;5.00;99.90;;;;;;5038127;28;20155;-59
2022/02/08 05:48:02;;;;;;;17.65;8.48;;;5.00;99.90;;;;;;5034200;28;20079;-59
2022/02/08 05:55:26;;;;;;;9.60;4.78;;;5.00;99.90;;;;;;5042916;28;20021;-57
2022/02/08 05:57:52;;;;;;;12.82;5.07;;;5.10;99.90;;;;;;5038611;28;20132;-55
2022/02/08 06:00:27;;;;;;;19.27;5.75;;;5.10;99.90;;;;;;5045509;28;20104;-61
2022/02/08 06:02:59;;;;;;;19.55;8.25;;;5.10;99.90;;;;;;5045630;28;20079;-59
2022/02/08 06:05:25;;;;;;;54.25;26.23;;;5.20;99.90;;;;;;5043158;28;20036;-60
2022/02/08 06:07:51;;;;;;;94.68;35.70;;;5.20;99.90;;;;;;5044360;28;20467;-59
2022/02/08 06:10:17;;;;;;;168.68;65.63;;;5.20;99.90;;;;;;5044554;28;20082;-60
2022/02/08 06:12:49;;;;;;;407.65;184.43;;;5.20;99.90;;;;;;5042971;28;20037;-56
2022/02/08 06:15:18;;;;;;;94.53;43.65;;;5.20;99.90;;;;;;5046015;28;20461;-58
2022/02/08 06:17:44;;;;;;;55.95;30.23;;;5.20;99.90;;;;;;5045442;28;20504;-59
2022/02/08 06:20:10;;;;;;;25.63;13.88;;;5.20;99.90;;;;;;5038962;28;20124;-57
2022/02/08 06:22:36;;;;;;;24.02;13.73;;;5.30;99.90;;;;;;5044802;28;20123;-59
2022/02/08 06:25:03;;;;;;;15.77;9.55;;;5.30;99.90;;;;;;5045271;28;20510;-58
2022/02/08 06:27:30;;;;;;;20.73;10.25;;;5.30;99.90;;;;;;5044671;28;20059;-61
2022/02/08 06:29:58;;;;;;;23.70;14.15;;;5.30;99.90;;;;;;5044221;28;20025;-59
2022/02/08 06:32:24;;;;;;;19.08;10.85;;;5.40;99.90;;;;;;5034378;28;20034;-59
2022/02/08 06:34:50;;;;;;;14.85;9.43;;;5.40;99.90;;;;;;5044606;28;20072;-59
2022/02/08 06:37:19;;;;;;;17.80;9.95;;;5.40;99.90;;;;;;5044287;28;20037;-59
2022/02/08 06:39:44;;;;;;;15.27;9.30;;;5.40;99.90;;;;;;5045365;28;20025;-60
2022/02/08 06:42:10;;;;;;;18.85;11.02;;;5.40;99.90;;;;;;5040454;28;20557;-59
2022/02/08 06:44:36;;;;;;;17.35;10.55;;;5.40;99.90;;;;;;5041506;28;20032;-60
2022/02/08 06:47:03;;;;;;;293.45;116.03;;;5.50;99.90;;;;;;5041526;28;20494;-58
2022/02/08 06:49:28;;;;;;;298.52;98.05;;;5.50;99.90;;;;;;5023356;28;20044;-57
2022/02/08 06:51:54;;;;;;;100.75;38.72;;;5.50;99.90;;;;;;5042190;28;20044;-59
2022/02/08 06:54:20;;;;;;;372.38;127.95;;;5.50;99.90;;;;;;5038069;28;20037;-60
2022/02/08 06:56:46;;;;;;;165.25;61.33;;;5.50;99.90;;;;;;5016239;28;20049;-59
2022/02/08 06:59:14;;;;;;;51.85;23.05;;;5.50;99.90;;;;;;5043035;28;20687;-60
2022/02/08 07:01:40;;;;;;;38.85;17.40;;;5.50;99.90;;;;;;5039933;28;20040;-59
2022/02/08 07:04:13;;;;;;;16.63;11.20;;;5.60;99.90;;;;;;5044828;28;20035;-60
2022/02/08 07:06:39;;;;;;;15.70;8.68;;;5.60;99.90;;;;;;5033045;28;20080;-59
2022/02/08 07:09:05;;;;;;;56.90;17.45;;;5.60;99.90;;;;;;5032677;28;20041;-60
2022/02/08 07:11:31;;;;;;;25.30;15.50;;;5.60;99.90;;;;;;5032716;28;20040;-60
2022/02/08 07:13:58;;;;;;;47.33;12.18;;;5.60;99.90;;;;;;5031780;28;20554;-59
2022/02/08 07:16:24;;;;;;;78.57;12.50;;;5.60;99.90;;;;;;5044504;28;20437;-60
2022/02/08 07:18:49;;;;;;;29.30;15.75;;;5.70;99.90;;;;;;5034947;28;20033;-60
2022/02/08 07:21:15;;;;;;;60.30;15.65;;;5.70;99.90;;;;;;5037429;28;20456;-59
2022/02/08 07:23:40;;;;;;;94.32;14.52;;;5.80;99.90;;;;;;5036474;28;20140;-58
2022/02/08 07:26:07;;;;;;;205.57;20.42;;;5.80;99.90;;;;;;5044600;28;20037;-59
2022/02/08 07:28:39;;;;;;;147.70;20.45;;;5.80;99.90;;;;;;5036623;28;20120;-57
2022/02/08 07:31:08;;;;;;;266.13;21.95;;;5.80;99.90;;;;;;5042662;28;20049;-60
2022/02/08 07:33:38;;;;;;;117.97;21.27;;;5.90;99.90;;;;;;5039446;28;20033;-59
2022/02/08 07:36:12;;;;;;;26.42;16.85;;;5.90;99.90;;;;;;5042681;28;20037;-59
2022/02/08 07:38:39;;;;;;;25.50;14.38;;;6.00;99.90;;;;;;5042549;28;20041;-59
2022/02/08 07:43:31;;;;;;;17.35;10.63;;;6.10;99.90;;;;;;5039855;28;20029;-61
2022/02/08 07:45:57;;;;;;;33.03;17.85;;;6.10;99.90;;;;;;5038295;28;20028;-60
2022/02/08 07:48:23;;;;;;;28.52;18.48;;;6.10;99.90;;;;;;5027219;28;20061;-60
2022/02/08 07:50:51;;;;;;;41.30;26.73;;;6.20;99.90;;;;;;5038260;28;20108;-60
2022/02/08 07:53:18;;;;;;;23.23;13.80;;;6.20;99.90;;;;;;5034503;28;20030;-59
2022/02/08 07:55:44;;;;;;;62.83;38.60;;;6.30;99.90;;;;;;5038598;28;20838;-60
2022/02/08 07:58:09;;;;;;;24.25;15.20;;;6.30;99.90;;;;;;5033062;28;20064;-60
2022/02/08 08:00:35;;;;;;;27.90;19.35;;;6.40;99.90;;;;;;5042334;28;20052;-58
2022/02/08 08:03:00;;;;;;;18.08;12.65;;;6.40;99.90;;;;;;5038910;28;20033;-59
2022/02/08 08:05:26;;;;;;;14.43;9.02;;;6.40;99.90;;;;;;5033851;28;20550;-60
2022/02/08 08:07:52;;;;;;;14.82;8.05;;;6.50;99.90;;;;;;5046063;28;20021;-59
2022/02/08 08:10:20;;;;;;;13.90;9.30;;;6.60;99.90;;;;;;5047419;28;20040;-58
2022/02/08 08:12:52;;;;;;;14.55;10.18;;;6.60;99.90;;;;;;5038011;28;20074;-58
2022/02/08 08:18:02;;;;;;;19.13;11.18;;;6.70;99.90;;;;;;5037825;28;20453;-60
2022/02/08 08:20:28;;;;;;;18.50;9.18;;;6.70;99.90;;;;;;5036012;28;20495;-58
2022/02/08 08:22:54;;;;;;;16.90;9.00;;;6.80;99.90;;;;;;5038722;28;20029;-55
2022/02/08 08:25:20;;;;;;;16.77;8.88;;;6.80;99.90;;;;;;5031404;28;20108;-57
2022/02/08 08:27:45;;;;;;;18.30;10.27;;;6.80;99.90;;;;;;5036225;28;20044;-59
2022/02/08 08:30:11;;;;;;;17.50;9.75;;;6.90;99.90;;;;;;5036895;28;20030;-59
2022/02/08 08:32:39;;;;;;;14.77;8.02;;;6.90;99.90;;;;;;5038018;28;20029;-60
2022/02/08 08:35:06;;;;;;;13.93;6.75;;;7.00;99.90;;;;;;5046089;28;20032;-59
2022/02/08 08:37:37;;;;;;;12.27;5.82;;;7.00;99.90;;;;;;5035720;28;20105;-59
2022/02/08 08:40:13;;;;;;;14.32;5.82;;;7.10;99.90;;;;;;5037584;28;20025;-58
2022/02/08 08:42:53;;;;;;;14.05;6.25;;;7.10;99.90;;;;;;5041184;28;20099;-59
2022/02/08 08:53:34;;;;;;;14.35;5.47;;;7.30;99.90;;;;;;5034546;28;20041;-61
2022/02/08 08:56:00;;;;;;;13.50;5.20;;;7.40;99.90;;;;;;5040617;28;20037;-59
2022/02/08 08:58:25;;;;;;;15.00;5.30;;;7.50;99.90;;;;;;5044734;28;20025;-60
2022/02/08 09:00:51;;;;;;;13.20;5.57;;;7.50;99.90;;;;;;5037324;28;20022;-60
2022/02/08 09:03:17;;;;;;;10.48;4.93;;;7.60;99.90;;;;;;5039499;28;20021;-61
2022/02/08 09:05:42;;;;;;;11.52;5.20;;;7.60;99.90;;;;;;5029943;28;20162;-58
2022/02/08 09:08:08;;;;;;;11.00;5.40;;;7.60;99.90;;;;;;5030472;28;20483;-57
2022/02/08 09:11:00;;;;;;;14.32;5.57;;;7.60;99.90;;;;;;5030729;28;20036;-60
2022/02/08 09:14:38;;;;;;;11.82;5.57;;;7.60;99.90;;;;;;5033953;28;20828;-61
2022/02/08 09:16:25;;;;;;;;;;;7.70;99.90;;;;;;5027156;28;20451;-60
2022/02/08 09:30:01;;;;;;;12.50;5.00;;;7.80;99.90;;;;;;4992202;28;20041;-59
2022/02/08 09:34:55;;;;;;;11.02;4.82;;;8.00;99.90;;;;;;5034241;28;20112;-61
2022/02/08 09:37:21;;;;;;;9.80;4.72;;;8.00;99.90;;;;;;5035077;28;20167;-60
2022/02/08 09:39:51;;;;;;;10.13;3.85;;;8.00;99.90;;;;;;5037665;28;20083;-62
2022/02/08 09:42:17;;;;;;;6.93;3.50;;;8.10;99.90;;;;;;5034465;28;20038;-61
2022/02/08 09:44:43;;;;;;;13.95;4.78;;;8.10;99.90;;;;;;5040703;28;20963;-62
2022/02/08 09:47:13;;;;;;;9.82;4.25;;;8.10;99.90;;;;;;5043222;28;20033;-60
2022/02/08 09:49:44;;;;;;;9.65;4.43;;;8.20;99.90;;;;;;5026297;28;20052;-60
2022/02/08 09:52:10;;;;;;;13.30;4.93;;;8.20;99.90;;;;;;5034386;28;20029;-59
2022/02/08 09:54:36;;;;;;;12.02;5.80;;;8.30;99.90;;;;;;5036928;28;20037;-58
2022/02/08 09:57:02;;;;;;;14.80;4.32;;;8.50;99.90;;;;;;5040624;28;20506;-57
2022/02/08 09:59:28;;;;;;;12.40;5.03;;;8.50;99.90;;;;;;5029491;28;20480;-58
2022/02/08 10:01:56;;;;;;;13.80;6.00;;;8.50;99.90;;;;;;5035230;28;20037;-59
2022/02/08 10:04:23;;;;;;;11.75;4.78;;;8.50;99.90;;;;;;5037058;28;20025;-59
2022/02/08 10:06:48;;;;;;;11.18;5.25;;;8.60;99.90;;;;;;5040442;28;20414;-59
2022/02/08 10:09:14;;;;;;;12.25;5.22;;;8.70;99.90;;;;;;5035844;28;20080;-59
2022/02/08 10:11:54;;;;;;;15.35;5.40;;;8.60;99.90;;;;;;5037584;28;20029;-58
2022/02/08 10:14:51;;;;;;;10.27;4.60;;;8.60;99.90;;;;;;5037515;28;20028;-59
2022/02/08 10:22:49;;;;;;;9.52;4.90;;;8.70;99.90;;;;;;5039185;28;20174;-60
2022/02/08 10:25:27;;;;;;;10.25;4.60;;;8.70;99.90;;;;;;5040958;28;20037;-60
2022/02/08 10:28:29;;;;;;;9.20;5.90;;;8.80;99.90;;;;;;5038601;28;20108;-59
2022/02/08 10:31:57;;;;;;;9.88;5.20;;;8.80;99.90;;;;;;5034540;28;20049;-59
2022/02/08 10:39:26;;;;;;;6.95;4.00;;;8.80;99.90;;;;;;5041374;28;20117;-55
2022/02/08 10:41:52;;;;;;;8.73;4.25;;;8.80;99.90;;;;;;5038595;28;20021;-59
2022/02/08 10:44:17;;;;;;;7.72;3.90;;;8.80;99.90;;;;;;5041502;28;20453;-60
2022/02/08 10:46:43;;;;;;;9.00;3.63;;;8.80;99.90;;;;;;5042404;28;20037;-57
2022/02/08 10:49:13;;;;;;;14.05;5.15;;;8.80;99.90;;;;;;5027035;28;20053;-60
2022/02/08 10:51:54;;;;;;;10.93;4.90;;;8.90;99.90;;;;;;5042305;28;20095;-58
2022/02/08 10:57:02;;;;;;;8.77;4.25;;;8.90;99.90;;;;;;5040310;28;20026;-59
2022/02/08 10:59:44;;;;;;;14.43;6.47;;;9.00;99.90;;;;;;5039648;28;20033;-59
2022/02/08 11:02:27;;;;;;;8.82;4.00;;;9.10;99.90;;;;;;5044717;28;20056;-60
2022/02/08 11:08:08;;;;;;;12.05;3.85;;;9.10;99.90;;;;;;5041904;28;20033;-58
2022/02/08 11:21:17;;;;;;;8.77;4.50;;;9.30;99.90;;;;;;5039920;28;20037;-57
2022/02/08 11:23:58;;;;;;;56.17;26.52;;;9.30;99.90;;;;;;5041584;28;20387;-58
2022/02/08 11:26:36;;;;;;;15.75;7.13;;;9.20;99.90;;;;;;5038515;28;20068;-60
2022/02/08 11:29:36;;;;;;;27.58;13.70;;;9.30;99.90;;;;;;5045403;28;20021;-59
2022/02/08 11:32:11;;;;;;;6.72;3.38;;;9.30;99.90;;;;;;5038927;28;20415;-59
2022/02/08 11:51:05;;;;;;;6.63;2.40;;;9.60;99.90;;;;;;5034840;28;20368;-61
2022/02/08 11:53:48;;;;;;;15.45;3.05;;;9.70;99.90;;;;;;5042608;28;20134;-60
2022/02/08 11:56:27;;;;;;;19.20;9.48;;;9.60;99.90;;;;;;5038473;28;20731;-60
2022/02/08 12:10:01;;;;;;;10.15;2.13;;;9.70;99.90;;;;;;5031929;28;20034;-59
2022/02/08 12:30:18;;;;;;;9.05;2.78;;;9.90;99.90;;;;;;5046043;28;20031;-58
2022/02/08 12:33:03;;;;;;;7.15;3.00;;;10.00;99.90;;;;;;5045771;28;20029;-61
2022/02/08 12:52:36;;;;;;;12.30;5.10;;;10.10;99.90;;;;;;5049178;28;20482;-61
2022/02/08 14:04:10;;;;;;;10.10;4.03;;;10.20;99.90;;;;;;5038682;28;20513;-60
2022/02/08 14:06:19;;;;;;;10.90;6.68;;;10.20;99.90;;;;;;5039409;28;20071;-61
2022/02/08 14:14:36;;;;;;;6.43;2.90;;;10.00;99.90;;;;;;5040983;28;20495;-59
2022/02/08 14:22:08;;;;;;;19.33;8.70;;;10.10;99.90;;;;;;5033734;28;20543;-61
2022/02/08 14:24:47;;;;;;;49.75;19.63;;;10.20;99.90;;;;;;5040260;28;20056;-61
2022/02/08 14:30:01;;;;;;;6.63;3.17;;;10.20;99.90;;;;;;5045807;28;20079;-61
2022/02/08 14:35:35;;;;;;;9.63;3.35;;;10.30;99.90;;;;;;5042742;28;20025;-59
2022/02/08 15:00:11;;;;;;;6.63;2.47;;;10.00;99.90;;;;;;5045914;28;20032;-59
2022/02/08 15:13:09;;;;;;;8.18;2.20;;;9.90;99.90;;;;;;5050667;28;20509;-60
2022/02/08 15:15:50;;;;;;;12.27;4.40;;;9.90;99.90;;;;;;5043147;28;20423;-61
2022/02/08 15:18:16;;;;;;;5.90;1.60;;;9.90;99.90;;;;;;5040930;28;20029;-62
2022/02/08 15:20:41;;;;;;;7.72;1.95;;;9.90;99.90;;;;;;5035332;28;20164;-61
2022/02/08 15:23:10;;;;;;;8.13;2.75;;;9.90;99.90;;;;;;5036972;28;20052;-60
2022/02/08 15:25:36;;;;;;;13.68;4.00;;;9.90;99.90;;;;;;5042651;28;20057;-57
2022/02/08 15:28:04;;;;;;;10.43;3.00;;;9.90;99.90;;;;;;5040698;28;20029;-60
2022/02/08 15:30:31;;;;;;;7.75;2.25;;;9.90;99.90;;;;;;5036935;28;20029;-60
2022/02/08 15:32:57;;;;;;;6.00;2.20;;;9.90;99.90;;;;;;5034251;28;20091;-62
2022/02/08 15:35:22;;;;;;;4.57;1.70;;;9.80;99.90;;;;;;5037944;28;20021;-60
2022/02/08 15:37:49;;;;;;;7.82;3.45;;;9.80;99.90;;;;;;5041956;28;20033;-61
2022/02/08 15:40:16;;;;;;;4.65;1.60;;;9.80;99.90;;;;;;5038216;28;20041;-59
2022/02/08 15:42:42;;;;;;;3.35;1.35;;;9.70;99.90;;;;;;5042361;28;20040;-61
2022/02/08 15:45:57;;;;;;;4.28;1.52;;;9.70;99.90;;;;;;5033033;28;20025;-60
2022/02/08 15:47:57;;;;;;;3.55;1.40;;;9.70;99.90;;;;;;5041810;28;20115;-59
2022/02/08 15:50:46;;;;;;;1.85;1.38;;;9.60;99.90;;;;;;5038079;28;20483;-61
2022/02/08 15:53:31;;;;;;;2.22;1.30;;;9.60;99.90;;;;;;5043912;28;20029;-60
2022/02/08 16:24:36;;;;;;;49.08;25.33;;;9.10;99.90;;;;;;5046862;28;20021;-59
2022/02/08 16:30:32;;;;;;;14.38;7.88;;;9.00;99.90;;;;;;5030706;28;20041;-61
2022/02/08 16:49:21;;;;;;;28.70;15.20;;;8.80;99.90;;;;;;5041616;28;20025;-57
2022/02/08 16:54:46;;;;;;;44.70;22.40;;;8.80;99.90;;;;;;5035353;28;20429;-58
2022/02/08 16:57:20;;;;;;;43.38;22.23;;;8.80;99.90;;;;;;5039480;28;20026;-59
2022/02/08 16:59:46;;;;;;;73.32;35.80;;;8.80;99.90;;;;;;5043219;28;20033;-60
2022/02/08 17:02:18;;;;;;;47.67;21.85;;;8.70;99.90;;;;;;5051080;28;20065;-59
2022/02/08 17:04:43;;;;;;;24.38;11.02;;;8.70;99.90;;;;;;5048821;28;20087;-59
2022/02/08 17:07:09;;;;;;;21.55;10.82;;;8.70;99.90;;;;;;5043599;28;20024;-60
2022/02/08 17:12:08;;;;;;;12.32;6.50;;;8.70;99.90;;;;;;5041052;28;20036;-58
2022/02/08 17:14:50;;;;;;;6.43;3.88;;;8.70;99.90;;;;;;5040450;28;20029;-60
2022/02/08 17:47:41;;;;;;;;;;;8.70;99.90;;;;;;5043166;28;20107;-58
2022/02/08 17:50:09;;;;;;;41.45;17.67;;;8.70;99.90;;;;;;5029243;28;19925;-60
2022/02/08 17:52:37;;;;;;;55.83;20.80;;;8.70;99.90;;;;;;5023391;28;20022;-60
2022/02/08 17:55:05;;;;;;;88.25;32.38;;;8.70;99.90;;;;;;5028752;28;20036;-60
2022/02/08 17:57:30;;;;;;;47.47;18.85;;;8.70;99.90;;;;;;5029243;28;20495;-60
2022/02/08 17:59:57;;;;;;;32.65;14.32;;;8.70;99.90;;;;;;5027589;28;20029;-59
2022/02/08 18:02:22;;;;;;;17.52;8.90;;;8.70;99.90;;;;;;5028378;28;20037;-58
2022/02/08 18:04:49;;;;;;;13.23;6.70;;;8.70;99.90;;;;;;5021946;28;20096;-60
2022/02/08 18:07:19;;;;;;;19.65;8.18;;;8.70;99.90;;;;;;5024230;28;20090;-60
2022/02/08 18:09:46;;;;;;;55.33;21.50;;;8.70;99.90;;;;;;5022947;28;20021;-61
2022/02/08 18:12:12;;;;;;;96.25;28.15;;;8.70;99.90;;;;;;5022654;28;20391;-60
2022/02/08 18:14:41;;;;;;;79.05;23.13;;;8.60;99.90;;;;;;5046174;28;20029;-61
2022/02/08 18:17:11;;;;;;;106.82;34.65;;;8.70;99.90;;;;;;5046608;28;20044;-60
2022/02/08 18:19:40;;;;;;;28.85;10.52;;;8.70;99.90;;;;;;5037971;28;20048;-59
2022/02/08 18:57:11;;;;;;;11.77;8.00;;;8.70;99.90;;;;;;5034939;28;20033;-58
2022/02/08 19:11:32;;;;;;;8.00;4.97;;;8.70;99.90;;;;;;5032877;28;20495;-60
2022/02/08 19:19:02;;;;;;;9.65;5.30;;;8.70;99.90;;;;;;5038125;28;20272;-60
2022/02/08 19:23:53;;;;;;;10.15;6.10;;;8.60;99.90;;;;;;5041946;28;20541;-61
2022/02/08 19:26:21;;;;;;;7.55;4.57;;;8.60;99.90;;;;;;5032597;28;20057;-56
2022/02/08 19:28:49;;;;;;;10.73;5.95;;;8.60;99.90;;;;;;5044785;28;20042;-59
2022/02/08 19:31:19;;;;;;;9.30;5.15;;;8.60;99.90;;;;;;5035204;28;20407;-59
2022/02/08 19:33:49;;;;;;;12.35;5.28;;;8.60;99.90;;;;;;5035557;28;20466;-59
2022/02/08 19:36:16;;;;;;;9.07;6.25;;;8.60;99.90;;;;;;5044150;28;20458;-59
2022/02/08 19:38:47;;;;;;;14.82;7.97;;;8.70;99.90;;;;;;5043406;28;20071;-58
2022/02/08 19:41:14;;;;;;;13.52;8.60;;;8.70;99.90;;;;;;5050841;28;20044;-59
2022/02/08 19:43:39;;;;;;;12.02;7.22;;;8.60;99.90;;;;;;5042068;28;20021;-59
2022/02/08 19:46:05;;;;;;;14.60;10.07;;;8.60;99.90;;;;;;5040107;28;20040;-58
2022/02/08 19:48:31;;;;;;;12.13;8.90;;;8.60;99.90;;;;;;5047348;28;20033;-60
2022/02/08 19:50:56;;;;;;;11.82;6.50;;;8.60;99.90;;;;;;5047792;28;20383;-59
2022/02/08 19:53:22;;;;;;;8.20;4.47;;;8.60;99.90;;;;;;5047764;28;20129;-58
2022/02/08 19:56:07;;;;;;;10.05;6.60;;;8.60;99.90;;;;;;5044651;28;20024;-59
2022/02/08 19:58:33;;;;;;;6.82;4.05;;;8.70;99.90;;;;;;5044349;28;20109;-59
2022/02/08 20:01:07;;;;;;;8.32;4.18;;;8.60;99.90;;;;;;5025565;28;20140;-60
2022/02/08 20:03:41;;;;;;;10.15;5.13;;;8.70;99.90;;;;;;5044107;28;20040;-57
2022/02/08 20:06:08;;;;;;;13.23;7.22;;;8.70;99.90;;;;;;5050902;28;20029;-60
2022/02/08 20:08:34;;;;;;;12.90;6.40;;;8.70;99.90;;;;;;5043660;28;20453;-59
2022/02/08 20:11:00;;;;;;;9.65;4.90;;;8.70;99.90;;;;;;5047493;28;20037;-58
2022/02/08 20:13:28;;;;;;;10.07;6.13;;;8.70;99.90;;;;;;5047924;28;20024;-58
2022/02/08 20:15:55;;;;;;;11.35;6.20;;;8.70;99.90;;;;;;5060098;28;20108;-60
2022/02/08 20:18:22;;;;;;;11.18;6.55;;;8.70;99.90;;;;;;5044300;28;20029;-58
2022/02/08 20:20:49;;;;;;;9.88;5.32;;;8.70;99.90;;;;;;5047893;28;20017;-58
2022/02/08 20:23:16;;;;;;;10.10;5.80;;;8.60;99.90;;;;;;5043822;28;20033;-57
2022/02/08 20:25:49;;;;;;;10.38;4.78;;;8.60;99.90;;;;;;5041169;28;20036;-60
2022/02/08 20:28:23;;;;;;;11.05;5.35;;;8.60;99.90;;;;;;5032573;28;20025;-58
2022/02/08 20:30:51;;;;;;;7.90;4.47;;;8.60;99.90;;;;;;5042781;28;20469;-58
2022/02/08 20:33:16;;;;;;;12.20;5.57;;;8.60;99.90;;;;;;5047543;28;20115;-58
2022/02/08 20:35:42;;;;;;;12.10;5.53;;;8.60;99.90;;;;;;5043828;28;20104;-59
2022/02/08 20:38:08;;;;;;;13.57;6.90;;;8.60;99.90;;;;;;5041094;28;20034;-58
2022/02/08 20:40:39;;;;;;;13.00;6.88;;;8.60;99.90;;;;;;5040053;28;20014;-59
2022/02/08 20:43:06;;;;;;;9.77;5.25;;;8.60;99.90;;;;;;5043169;28;20029;-58
2022/02/08 20:45:35;;;;;;;12.02;5.53;;;8.60;99.90;;;;;;5039548;28;20029;-58
2022/02/08 20:48:01;;;;;;;16.73;9.02;;;8.60;99.90;;;;;;5038807;28;20017;-60
2022/02/08 20:50:27;;;;;;;15.38;8.50;;;8.60;99.90;;;;;;5039019;28;20033;-60
2022/02/08 20:53:15;;;;;;;14.00;6.18;;;8.60;99.90;;;;;;5037691;28;20029;-60
2022/02/08 20:55:47;;;;;;;12.80;6.63;;;8.60;99.90;;;;;;5031599;28;20035;-60
2022/02/08 20:58:27;;;;;;;10.95;6.28;;;8.60;99.90;;;;;;5039780;28;20040;-59
2022/02/08 21:00:53;;;;;;;13.02;7.68;;;8.60;99.90;;;;;;5049227;28;20017;-57